Wijchen, Netherlands
Current Conditions -  °F | °C
As of 2:25 PM on Friday 28 Nov 2014 (Local Time) from EHVK Reporting Station
Haze Haze  
Wind Chill:   Ceiling: Unl
Heat Index:   Visibility: 6mi
Dew Point:   Wind: 13mph
Humidity: 82%   Direction: 90°E
Pressure: 29.77"   Gusts: NA
Location:  51.81°N, 5.73°E
Report Text: EHVK 281325Z AUTO 09011KT 9000 BR NCD 09/06 Q1008 BLU 09011KT CAVOK
Loading
Personal Weather Stations






























Interactive Weather Map New forecast layout! Learn more

10-Day Weather Forecast

Advertisements
Track Severe Weather on mobile